Van Etten, New York
Current Conditions -  °F | °C
As of 11:03 PM on Wednesday 22 Oct 2014 (Local Time) from KELM Reporting Station
Overcast Overcast  
Wind Chill: 44°   Ceiling: 1500
Heat Index: 49°   Visibility: 10mi
Dew Point: 43°   Wind: 12mph
Humidity: 80%   Direction: 360°N
Pressure: 30.05"   Gusts: 22mph
Location:  42.2°N, 76.55°W
Report Text: KELM 230303Z 36010G19KT 10SM OVC015 09/06 A3005 RMK AO2 T00940061
Loading
Personal Weather Stations






























Interactive Weather Map
Tropical Storm Tracking
New forecast layout! Learn more

10-Day Weather Forecast

Advertisements
Track Severe Weather on mobile